Gulkana, Alaska
Current Conditions -  °F | °C
As of 4:53 PM on Sunday 25 Jan 2015 (Local Time) from PAGK Reporting Station
Haze Haze  
Wind Chill:   Ceiling: 7000
Heat Index:   Visibility: 4mi
Dew Point: -5°   Wind: 3mph
Humidity: 72%   Direction: 350°N
Pressure: 29.73"   Gusts: NA
Location:  62.25°N, 145.42°W
Report Text: PAGK 260153Z AUTO 35003KT 4SM HZ OVC070 M17/M21 A2973 RMK AO2 SLP123 T11671206 TSNO
Loading
Personal Weather Stations






























Interactive Weather Map New forecast layout! Learn more

10-Day Weather Forecast

Advertisements
Track Severe Weather on mobile